シドニー の空港の天気 - METARとTAF

シドニー国際空港 ( YSSY / SYD ) - オーストラリア ニューサウスウェールズ州、Mascot
飛行場実況気象(Metar)
観測時間07/16 16:00 AEST (07/16 06:00 UTC)
風向・風速西 5m/s
視程10km以上
天気現象
なし
気温17℃
湿度22%
気圧1011hPa
METARYSSY 160600Z 27010KT CAVOK 17/M05 Q1011
過去の天気等 Google飛行場航空写真 Wunderground天気予報

過去48時間のMETAR

飛行場予報(TAF)
発表時間: 7/16 15:18 AEST (7/16 05:18 UTC)
予報対象時間: 16日16時 AEST ~ 17日22時 AEST
風向・風速西 6m/s
視程10km以上
なし
16日19時 AEST から
風向・風速西北西 4m/s
視程10km以上
なし
17日12時 AEST から
風向・風速北北西 8m/s 瞬間風速 13m/s
視程10km以上
なし
17日19時 AEST から
風向・風速北北西 7m/s
視程10km以上
なし
TAF YSSY 160518Z 1606/1712 26012KT CAVOK
FM160900 29008KT CAVOK
FM170200 34015G25KT CAVOK
FM170900 34013KT CAVOK